sensor_id;sensor_type;location;lat;lon;timestamp;temperature;humidity
71879;DHT22;59755;43.834;4.364;2023-01-10T00:00:21;9.70;52.70
71879;DHT22;59755;43.834;4.364;2023-01-10T00:02:47;9.70;53.00
71879;DHT22;59755;43.834;4.364;2023-01-10T00:05:13;9.60;53.10
71879;DHT22;59755;43.834;4.364;2023-01-10T00:07:38;9.60;52.70
71879;DHT22;59755;43.834;4.364;2023-01-10T00:10:04;9.60;53.20
71879;DHT22;59755;43.834;4.364;2023-01-10T00:12:30;9.60;52.80
71879;DHT22;59755;43.834;4.364;2023-01-10T00:15:15;9.60;53.20
71879;DHT22;59755;43.834;4.364;2023-01-10T00:17:41;9.50;53.40
71879;DHT22;59755;43.834;4.364;2023-01-10T00:20:07;9.50;53.70
71879;DHT22;59755;43.834;4.364;2023-01-10T00:22:33;9.40;53.60
71879;DHT22;59755;43.834;4.364;2023-01-10T00:24:58;9.40;54.20
71879;DHT22;59755;43.834;4.364;2023-01-10T00:27:24;9.40;54.10
71879;DHT22;59755;43.834;4.364;2023-01-10T00:29:50;9.30;53.90
71879;DHT22;59755;43.834;4.364;2023-01-10T00:32:22;9.30;54.00
71879;DHT22;59755;43.834;4.364;2023-01-10T00:34:48;9.30;54.20
71879;DHT22;59755;43.834;4.364;2023-01-10T00:37:13;9.30;54.10
71879;DHT22;59755;43.834;4.364;2023-01-10T00:39:39;9.30;53.80
71879;DHT22;59755;43.834;4.364;2023-01-10T00:42:05;9.30;53.90
71879;DHT22;59755;43.834;4.364;2023-01-10T00:44:49;9.30;53.70
71879;DHT22;59755;43.834;4.364;2023-01-10T00:47:16;9.30;53.70
71879;DHT22;59755;43.834;4.364;2023-01-10T00:49:43;9.20;54.00
71879;DHT22;59755;43.834;4.364;2023-01-10T00:52:09;9.20;53.80
71879;DHT22;59755;43.834;4.364;2023-01-10T00:54:34;9.20;54.30
71879;DHT22;59755;43.834;4.364;2023-01-10T00:57:00;9.20;54.10
71879;DHT22;59755;43.834;4.364;2023-01-10T00:59:26;9.20;54.10
71879;DHT22;59755;43.834;4.364;2023-01-10T01:01:54;9.10;54.00
71879;DHT22;59755;43.834;4.364;2023-01-10T01:04:20;9.10;53.80
71879;DHT22;59755;43.834;4.364;2023-01-10T01:06:46;9.10;53.40
71879;DHT22;59755;43.834;4.364;2023-01-10T01:09:13;9.10;53.20
71879;DHT22;59755;43.834;4.364;2023-01-10T01:11:39;9.10;53.50
71879;DHT22;59755;43.834;4.364;2023-01-10T01:14:05;9.10;53.40
71879;DHT22;59755;43.834;4.364;2023-01-10T01:16:31;9.10;53.20
71879;DHT22;59755;43.834;4.364;2023-01-10T01:18:57;9.10;53.50
71879;DHT22;59755;43.834;4.364;2023-01-10T01:21:23;9.10;53.10
71879;DHT22;59755;43.834;4.364;2023-01-10T01:23:53;9.10;53.90
71879;DHT22;59755;43.834;4.364;2023-01-10T01:26:24;9.10;53.00
71879;DHT22;59755;43.834;4.364;2023-01-10T01:28:50;9.00;53.10
71879;DHT22;59755;43.834;4.364;2023-01-10T01:31:16;9.00;53.30
71879;DHT22;59755;43.834;4.364;2023-01-10T01:33:42;9.00;53.30
71879;DHT22;59755;43.834;4.364;2023-01-10T01:36:10;9.00;53.40
71879;DHT22;59755;43.834;4.364;2023-01-10T01:38:39;8.90;53.50
71879;DHT22;59755;43.834;4.364;2023-01-10T01:41:06;8.80;53.80
71879;DHT22;59755;43.834;4.364;2023-01-10T01:44:02;8.70;54.00
71879;DHT22;59755;43.834;4.364;2023-01-10T01:46:28;8.60;54.40
71879;DHT22;59755;43.834;4.364;2023-01-10T01:48:54;8.70;54.50
71879;DHT22;59755;43.834;4.364;2023-01-10T01:51:23;8.70;54.60
71879;DHT22;59755;43.834;4.364;2023-01-10T01:53:59;8.70;54.70
71879;DHT22;59755;43.834;4.364;2023-01-10T01:56:48;8.70;54.90
71879;DHT22;59755;43.834;4.364;2023-01-10T01:59:29;8.80;56.10
71879;DHT22;59755;43.834;4.364;2023-01-10T02:02:03;8.80;55.50
71879;DHT22;59755;43.834;4.364;2023-01-10T02:04:40;8.80;55.70
71879;DHT22;59755;43.834;4.364;2023-01-10T02:07:07;8.70;56.70
71879;DHT22;59755;43.834;4.364;2023-01-10T02:09:41;8.60;56.50
71879;DHT22;59755;43.834;4.364;2023-01-10T02:12:10;8.50;56.80
71879;DHT22;59755;43.834;4.364;2023-01-10T02:14:37;8.40;56.70
71879;DHT22;59755;43.834;4.364;2023-01-10T02:17:04;8.20;58.20
71879;DHT22;59755;43.834;4.364;2023-01-10T02:27:24;8.10;58.70
71879;DHT22;59755;43.834;4.364;2023-01-10T02:30:18;8.00;59.20
71879;DHT22;59755;43.834;4.364;2023-01-10T02:33:16;8.10;58.70
71879;DHT22;59755;43.834;4.364;2023-01-10T02:38:44;7.90;58.60
71879;DHT22;59755;43.834;4.364;2023-01-10T02:44:13;8.00;59.50
71879;DHT22;59755;43.834;4.364;2023-01-10T02:46:43;8.10;58.60
71879;DHT22;59755;43.834;4.364;2023-01-10T02:49:10;8.10;58.80
71879;DHT22;59755;43.834;4.364;2023-01-10T02:51:36;8.10;59.00
71879;DHT22;59755;43.834;4.364;2023-01-10T02:57:44;8.10;59.30
71879;DHT22;59755;43.834;4.364;2023-01-10T03:03:07;8.00;59.90
71879;DHT22;59755;43.834;4.364;2023-01-10T03:10:57;7.80;60.30
71879;DHT22;59755;43.834;4.364;2023-01-10T03:13:29;7.80;60.50
71879;DHT22;59755;43.834;4.364;2023-01-10T03:15:59;7.70;60.10
71879;DHT22;59755;43.834;4.364;2023-01-10T03:18:39;7.70;60.40
71879;DHT22;59755;43.834;4.364;2023-01-10T03:21:07;7.70;60.50
71879;DHT22;59755;43.834;4.364;2023-01-10T03:23:35;7.70;60.80
71879;DHT22;59755;43.834;4.364;2023-01-10T03:26:02;7.60;61.00
71879;DHT22;59755;43.834;4.364;2023-01-10T03:28:44;7.50;61.20
71879;DHT22;59755;43.834;4.364;2023-01-10T03:31:24;7.50;61.00
71879;DHT22;59755;43.834;4.364;2023-01-10T03:33:50;7.40;61.40
71879;DHT22;59755;43.834;4.364;2023-01-10T03:36:46;7.30;62.00
71879;DHT22;59755;43.834;4.364;2023-01-10T03:39:33;7.30;62.10
71879;DHT22;59755;43.834;4.364;2023-01-10T03:42:06;7.30;61.80
71879;DHT22;59755;43.834;4.364;2023-01-10T03:50:21;7.40;61.60
71879;DHT22;59755;43.834;4.364;2023-01-10T03:52:48;7.20;62.50
71879;DHT22;59755;43.834;4.364;2023-01-10T03:55:19;7.20;63.10
71879;DHT22;59755;43.834;4.364;2023-01-10T03:57:45;7.10;63.40
71879;DHT22;59755;43.834;4.364;2023-01-10T04:00:12;7.10;64.60
71879;DHT22;59755;43.834;4.364;2023-01-10T04:02:38;7.20;63.40
71879;DHT22;59755;43.834;4.364;2023-01-10T04:05:04;7.10;63.60
71879;DHT22;59755;43.834;4.364;2023-01-10T04:07:30;6.90;63.90
71879;DHT22;59755;43.834;4.364;2023-01-10T04:09:56;6.90;64.00
71879;DHT22;59755;43.834;4.364;2023-01-10T04:12:22;6.90;63.60
71879;DHT22;59755;43.834;4.364;2023-01-10T04:14:48;6.80;63.70
71879;DHT22;59755;43.834;4.364;2023-01-10T04:17:15;6.80;63.00
71879;DHT22;59755;43.834;4.364;2023-01-10T04:19:41;6.90;62.40
71879;DHT22;59755;43.834;4.364;2023-01-10T04:22:08;7.10;63.70
71879;DHT22;59755;43.834;4.364;2023-01-10T04:24:34;7.10;63.00
71879;DHT22;59755;43.834;4.364;2023-01-10T04:27:00;7.10;62.40
71879;DHT22;59755;43.834;4.364;2023-01-10T04:29:25;7.20;62.50
71879;DHT22;59755;43.834;4.364;2023-01-10T04:31:52;7.20;62.80
71879;DHT22;59755;43.834;4.364;2023-01-10T04:34:17;7.20;63.50
71879;DHT22;59755;43.834;4.364;2023-01-10T04:36:45;7.20;63.80
71879;DHT22;59755;43.834;4.364;2023-01-10T04:39:11;7.20;63.80
71879;DHT22;59755;43.834;4.364;2023-01-10T04:41:37;7.20;64.20
71879;DHT22;59755;43.834;4.364;2023-01-10T04:44:03;7.20;64.60
71879;DHT22;59755;43.834;4.364;2023-01-10T04:46:29;7.10;64.30
71879;DHT22;59755;43.834;4.364;2023-01-10T04:48:55;7.10;64.30
71879;DHT22;59755;43.834;4.364;2023-01-10T04:51:23;7.00;64.50
71879;DHT22;59755;43.834;4.364;2023-01-10T04:53:49;6.90;64.80
71879;DHT22;59755;43.834;4.364;2023-01-10T04:56:17;7.00;64.70
71879;DHT22;59755;43.834;4.364;2023-01-10T04:58:43;7.00;64.20
71879;DHT22;59755;43.834;4.364;2023-01-10T05:01:11;7.00;63.90
71879;DHT22;59755;43.834;4.364;2023-01-10T05:03:37;7.00;63.80
71879;DHT22;59755;43.834;4.364;2023-01-10T05:06:03;7.00;63.30
71879;DHT22;59755;43.834;4.364;2023-01-10T05:08:30;7.10;62.90
71879;DHT22;59755;43.834;4.364;2023-01-10T05:10:55;7.10;62.70
71879;DHT22;59755;43.834;4.364;2023-01-10T05:13:22;7.10;62.60
71879;DHT22;59755;43.834;4.364;2023-01-10T05:15:47;7.10;62.90
71879;DHT22;59755;43.834;4.364;2023-01-10T05:18:13;6.90;63.70
71879;DHT22;59755;43.834;4.364;2023-01-10T05:20:39;6.90;64.20
71879;DHT22;59755;43.834;4.364;2023-01-10T05:23:04;6.80;65.30
71879;DHT22;59755;43.834;4.364;2023-01-10T05:25:30;6.60;65.90
71879;DHT22;59755;43.834;4.364;2023-01-10T05:27:56;6.40;66.00
71879;DHT22;59755;43.834;4.364;2023-01-10T05:30:22;6.30;66.10
71879;DHT22;59755;43.834;4.364;2023-01-10T05:32:47;6.10;66.90
71879;DHT22;59755;43.834;4.364;2023-01-10T05:35:13;6.20;66.50
71879;DHT22;59755;43.834;4.364;2023-01-10T05:37:39;6.20;66.50
71879;DHT22;59755;43.834;4.364;2023-01-10T05:40:05;6.30;66.20
71879;DHT22;59755;43.834;4.364;2023-01-10T05:42:31;6.30;66.30
71879;DHT22;59755;43.834;4.364;2023-01-10T05:44:57;6.20;66.90
71879;DHT22;59755;43.834;4.364;2023-01-10T05:47:23;6.20;67.20
71879;DHT22;59755;43.834;4.364;2023-01-10T05:49:50;6.30;67.20
71879;DHT22;59755;43.834;4.364;2023-01-10T05:52:15;6.60;65.70
71879;DHT22;59755;43.834;4.364;2023-01-10T05:54:41;6.90;65.00
71879;DHT22;59755;43.834;4.364;2023-01-10T05:57:07;7.00;64.40
71879;DHT22;59755;43.834;4.364;2023-01-10T05:59:33;7.10;64.40
71879;DHT22;59755;43.834;4.364;2023-01-10T06:01:58;7.20;64.40
71879;DHT22;59755;43.834;4.364;2023-01-10T06:04:24;7.40;64.00
71879;DHT22;59755;43.834;4.364;2023-01-10T06:06:51;7.40;63.60
71879;DHT22;59755;43.834;4.364;2023-01-10T06:09:16;7.50;63.50
71879;DHT22;59755;43.834;4.364;2023-01-10T06:11:42;7.50;63.70
71879;DHT22;59755;43.834;4.364;2023-01-10T06:14:08;7.50;63.60
71879;DHT22;59755;43.834;4.364;2023-01-10T06:16:34;7.50;63.80
71879;DHT22;59755;43.834;4.364;2023-01-10T06:19:00;7.50;63.60
71879;DHT22;59755;43.834;4.364;2023-01-10T06:21:26;7.40;63.80
71879;DHT22;59755;43.834;4.364;2023-01-10T06:23:51;7.40;63.90
71879;DHT22;59755;43.834;4.364;2023-01-10T06:26:17;7.40;64.30
71879;DHT22;59755;43.834;4.364;2023-01-10T06:28:43;7.50;64.30
71879;DHT22;59755;43.834;4.364;2023-01-10T06:31:09;7.40;64.10
71879;DHT22;59755;43.834;4.364;2023-01-10T06:33:35;7.50;63.90
71879;DHT22;59755;43.834;4.364;2023-01-10T06:36:03;7.40;64.10
71879;DHT22;59755;43.834;4.364;2023-01-10T06:38:29;7.40;64.20
71879;DHT22;59755;43.834;4.364;2023-01-10T06:40:55;7.40;64.20
71879;DHT22;59755;43.834;4.364;2023-01-10T06:43:21;7.40;64.20
71879;DHT22;59755;43.834;4.364;2023-01-10T06:45:47;7.50;63.90
71879;DHT22;59755;43.834;4.364;2023-01-10T06:48:12;7.50;64.00
71879;DHT22;59755;43.834;4.364;2023-01-10T06:50:38;7.50;64.20
71879;DHT22;59755;43.834;4.364;2023-01-10T06:53:04;7.60;64.10
71879;DHT22;59755;43.834;4.364;2023-01-10T06:55:30;7.50;64.50
71879;DHT22;59755;43.834;4.364;2023-01-10T06:57:59;7.40;64.80
71879;DHT22;59755;43.834;4.364;2023-01-10T07:00:26;7.40;64.90
71879;DHT22;59755;43.834;4.364;2023-01-10T07:02:53;7.40;65.10
71879;DHT22;59755;43.834;4.364;2023-01-10T07:05:20;7.40;64.80
71879;DHT22;59755;43.834;4.364;2023-01-10T07:07:46;7.40;65.20
71879;DHT22;59755;43.834;4.364;2023-01-10T07:10:12;7.40;65.20
71879;DHT22;59755;43.834;4.364;2023-01-10T07:12:38;7.40;65.20
71879;DHT22;59755;43.834;4.364;2023-01-10T07:15:04;7.30;64.80
71879;DHT22;59755;43.834;4.364;2023-01-10T07:17:30;7.30;65.10
71879;DHT22;59755;43.834;4.364;2023-01-10T07:19:56;7.30;65.50
71879;DHT22;59755;43.834;4.364;2023-01-10T07:22:22;7.20;65.30
71879;DHT22;59755;43.834;4.364;2023-01-10T07:24:47;7.20;65.60
71879;DHT22;59755;43.834;4.364;2023-01-10T07:27:13;7.20;65.10
71879;DHT22;59755;43.834;4.364;2023-01-10T07:29:39;7.20;65.10
71879;DHT22;59755;43.834;4.364;2023-01-10T07:32:05;7.20;65.30
71879;DHT22;59755;43.834;4.364;2023-01-10T07:34:30;7.20;65.50
71879;DHT22;59755;43.834;4.364;2023-01-10T07:36:56;7.20;65.50
71879;DHT22;59755;43.834;4.364;2023-01-10T07:39:22;7.30;65.10
71879;DHT22;59755;43.834;4.364;2023-01-10T07:41:48;7.40;64.20
71879;DHT22;59755;43.834;4.364;2023-01-10T07:44:15;7.40;64.20
71879;DHT22;59755;43.834;4.364;2023-01-10T07:46:40;7.30;64.50
71879;DHT22;59755;43.834;4.364;2023-01-10T07:49:06;7.40;64.10
71879;DHT22;59755;43.834;4.364;2023-01-10T07:51:32;7.40;64.30
71879;DHT22;59755;43.834;4.364;2023-01-10T07:53:58;7.50;64.00
71879;DHT22;59755;43.834;4.364;2023-01-10T07:56:24;7.60;64.20
71879;DHT22;59755;43.834;4.364;2023-01-10T07:58:49;7.60;63.90
71879;DHT22;59755;43.834;4.364;2023-01-10T08:01:15;7.40;64.40
71879;DHT22;59755;43.834;4.364;2023-01-10T08:03:41;7.30;65.10
71879;DHT22;59755;43.834;4.364;2023-01-10T08:06:08;7.20;65.30
71879;DHT22;59755;43.834;4.364;2023-01-10T08:08:37;7.10;65.70
71879;DHT22;59755;43.834;4.364;2023-01-10T08:11:03;7.20;65.70
71879;DHT22;59755;43.834;4.364;2023-01-10T08:13:31;7.10;65.70
71879;DHT22;59755;43.834;4.364;2023-01-10T08:15:57;7.20;65.40
71879;DHT22;59755;43.834;4.364;2023-01-10T08:18:25;7.20;65.50
71879;DHT22;59755;43.834;4.364;2023-01-10T08:20:52;7.30;64.90
71879;DHT22;59755;43.834;4.364;2023-01-10T08:23:19;7.30;64.60
71879;DHT22;59755;43.834;4.364;2023-01-10T08:25:45;7.40;64.50
71879;DHT22;59755;43.834;4.364;2023-01-10T08:28:11;7.40;64.10
71879;DHT22;59755;43.834;4.364;2023-01-10T08:30:38;7.50;63.80
71879;DHT22;59755;43.834;4.364;2023-01-10T08:33:05;7.70;63.00
71879;DHT22;59755;43.834;4.364;2023-01-10T08:35:42;7.70;62.80
71879;DHT22;59755;43.834;4.364;2023-01-10T08:38:09;7.80;62.90
71879;DHT22;59755;43.834;4.364;2023-01-10T08:40:35;7.80;61.80
71879;DHT22;59755;43.834;4.364;2023-01-10T08:43:07;7.80;62.10
71879;DHT22;59755;43.834;4.364;2023-01-10T08:45:34;7.90;61.90
71879;DHT22;59755;43.834;4.364;2023-01-10T08:48:00;8.00;61.00
71879;DHT22;59755;43.834;4.364;2023-01-10T08:50:26;8.10;63.20
71879;DHT22;59755;43.834;4.364;2023-01-10T08:52:52;8.20;61.50
71879;DHT22;59755;43.834;4.364;2023-01-10T08:55:18;8.50;60.90
71879;DHT22;59755;43.834;4.364;2023-01-10T08:57:44;8.60;59.70
71879;DHT22;59755;43.834;4.364;2023-01-10T09:00:10;8.80;59.60
71879;DHT22;59755;43.834;4.364;2023-01-10T09:02:39;8.80;59.50
71879;DHT22;59755;43.834;4.364;2023-01-10T09:05:05;8.90;59.00
71879;DHT22;59755;43.834;4.364;2023-01-10T09:07:31;9.00;58.50
71879;DHT22;59755;43.834;4.364;2023-01-10T09:09:56;9.00;58.00
71879;DHT22;59755;43.834;4.364;2023-01-10T09:12:22;9.00;58.50
71879;DHT22;59755;43.834;4.364;2023-01-10T09:15:07;9.10;58.10
71879;DHT22;59755;43.834;4.364;2023-01-10T09:17:33;9.20;57.60
71879;DHT22;59755;43.834;4.364;2023-01-10T09:19:58;9.20;57.60
71879;DHT22;59755;43.834;4.364;2023-01-10T09:22:24;9.30;58.40
71879;DHT22;59755;43.834;4.364;2023-01-10T09:24:50;9.50;57.40
71879;DHT22;59755;43.834;4.364;2023-01-10T09:27:15;9.60;57.10
71879;DHT22;59755;43.834;4.364;2023-01-10T09:29:41;9.60;56.90
71879;DHT22;59755;43.834;4.364;2023-01-10T09:32:07;9.60;56.70
71879;DHT22;59755;43.834;4.364;2023-01-10T09:34:34;9.60;56.40
71879;DHT22;59755;43.834;4.364;2023-01-10T09:37:00;9.70;56.50
71879;DHT22;59755;43.834;4.364;2023-01-10T09:39:25;9.80;55.60
71879;DHT22;59755;43.834;4.364;2023-01-10T09:50:11;10.30;53.60
71879;DHT22;59755;43.834;4.364;2023-01-10T09:53:09;10.60;52.30
71879;DHT22;59755;43.834;4.364;2023-01-10T09:55:37;10.80;51.70
71879;DHT22;59755;43.834;4.364;2023-01-10T09:58:12;11.00;50.60
71879;DHT22;59755;43.834;4.364;2023-01-10T10:00:44;11.30;50.10
71879;DHT22;59755;43.834;4.364;2023-01-10T10:06:24;11.90;49.90
71879;DHT22;59755;43.834;4.364;2023-01-10T10:08:51;12.20;48.10
71879;DHT22;59755;43.834;4.364;2023-01-10T10:25:13;13.50;45.10
71879;DHT22;59755;43.834;4.364;2023-01-10T10:27:52;14.00;44.00
71879;DHT22;59755;43.834;4.364;2023-01-10T10:35:35;14.90;41.90
71879;DHT22;59755;43.834;4.364;2023-01-10T10:38:16;14.70;42.50
71879;DHT22;59755;43.834;4.364;2023-01-10T10:40:45;15.00;41.60
71879;DHT22;59755;43.834;4.364;2023-01-10T10:43:20;15.10;40.80
71879;DHT22;59755;43.834;4.364;2023-01-10T10:48:35;14.80;41.30
71879;DHT22;59755;43.834;4.364;2023-01-10T10:51:15;15.00;41.30
71879;DHT22;59755;43.834;4.364;2023-01-10T10:53:44;15.00;41.40
71879;DHT22;59755;43.834;4.364;2023-01-10T10:56:14;14.60;42.20
71879;DHT22;59755;43.834;4.364;2023-01-10T10:58:42;14.60;42.00
71879;DHT22;59755;43.834;4.364;2023-01-10T11:01:15;14.50;42.30
71879;DHT22;59755;43.834;4.364;2023-01-10T11:04:08;14.60;42.30
71879;DHT22;59755;43.834;4.364;2023-01-10T11:06:35;14.30;42.40
71879;DHT22;59755;43.834;4.364;2023-01-10T11:09:04;14.70;42.40
71879;DHT22;59755;43.834;4.364;2023-01-10T11:11:43;14.60;42.40
71879;DHT22;59755;43.834;4.364;2023-01-10T11:14:11;14.70;42.10
71879;DHT22;59755;43.834;4.364;2023-01-10T11:16:40;14.90;42.10
71879;DHT22;59755;43.834;4.364;2023-01-10T11:21:59;15.00;41.70
71879;DHT22;59755;43.834;4.364;2023-01-10T11:24:38;15.10;41.90
71879;DHT22;59755;43.834;4.364;2023-01-10T11:27:28;14.90;42.70
71879;DHT22;59755;43.834;4.364;2023-01-10T11:29:58;14.90;42.30
71879;DHT22;59755;43.834;4.364;2023-01-10T11:32:37;15.10;41.40
71879;DHT22;59755;43.834;4.364;2023-01-10T11:40:53;15.50;40.80
71879;DHT22;59755;43.834;4.364;2023-01-10T11:43:37;15.60;41.00
71879;DHT22;59755;43.834;4.364;2023-01-10T11:46:14;15.60;41.40
71879;DHT22;59755;43.834;4.364;2023-01-10T11:48:50;15.90;40.30
71879;DHT22;59755;43.834;4.364;2023-01-10T11:51:23;15.60;40.40
71879;DHT22;59755;43.834;4.364;2023-01-10T11:54:01;15.80;40.50
71879;DHT22;59755;43.834;4.364;2023-01-10T11:56:30;16.00;39.60
71879;DHT22;59755;43.834;4.364;2023-01-10T11:58:59;16.30;39.30
71879;DHT22;59755;43.834;4.364;2023-01-10T12:04:16;16.40;38.90
71879;DHT22;59755;43.834;4.364;2023-01-10T12:06:48;16.70;38.80
71879;DHT22;59755;43.834;4.364;2023-01-10T12:12:16;17.00;38.30
71879;DHT22;59755;43.834;4.364;2023-01-10T12:14:43;16.80;38.20
71879;DHT22;59755;43.834;4.364;2023-01-10T12:17:30;17.20;37.70
71879;DHT22;59755;43.834;4.364;2023-01-10T12:19:59;17.10;37.90
71879;DHT22;59755;43.834;4.364;2023-01-10T12:22:40;17.10;37.40
71879;DHT22;59755;43.834;4.364;2023-01-10T12:25:44;17.20;37.90
71879;DHT22;59755;43.834;4.364;2023-01-10T12:28:29;17.20;37.50
71879;DHT22;59755;43.834;4.364;2023-01-10T12:30:58;17.00;37.90
71879;DHT22;59755;43.834;4.364;2023-01-10T12:33:29;17.10;37.30
71879;DHT22;59755;43.834;4.364;2023-01-10T12:38:51;17.20;37.70
71879;DHT22;59755;43.834;4.364;2023-01-10T12:44:33;17.30;37.50
71879;DHT22;59755;43.834;4.364;2023-01-10T12:49:57;17.20;37.40
71879;DHT22;59755;43.834;4.364;2023-01-10T12:55:20;18.00;36.90
71879;DHT22;59755;43.834;4.364;2023-01-10T12:57:50;18.00;36.70
71879;DHT22;59755;43.834;4.364;2023-01-10T13:00:25;17.30;36.80
71879;DHT22;59755;43.834;4.364;2023-01-10T13:02:55;17.50;36.70
71879;DHT22;59755;43.834;4.364;2023-01-10T13:05:28;17.90;36.30
71879;DHT22;59755;43.834;4.364;2023-01-10T13:07:59;17.90;36.60
71879;DHT22;59755;43.834;4.364;2023-01-10T13:10:26;18.10;36.10
71879;DHT22;59755;43.834;4.364;2023-01-10T13:13:17;17.80;36.50
71879;DHT22;59755;43.834;4.364;2023-01-10T13:15:56;17.90;36.60
71879;DHT22;59755;43.834;4.364;2023-01-10T13:18:30;17.90;36.10
71879;DHT22;59755;43.834;4.364;2023-01-10T13:21:07;18.20;35.90
71879;DHT22;59755;43.834;4.364;2023-01-10T13:27:02;18.80;35.40
71879;DHT22;59755;43.834;4.364;2023-01-10T13:29:42;19.40;34.80
71879;DHT22;59755;43.834;4.364;2023-01-10T13:32:29;19.30;34.40
71879;DHT22;59755;43.834;4.364;2023-01-10T13:35:15;19.20;34.60
71879;DHT22;59755;43.834;4.364;2023-01-10T13:37:43;17.90;36.60
71879;DHT22;59755;43.834;4.364;2023-01-10T13:40:23;17.20;37.80
71879;DHT22;59755;43.834;4.364;2023-01-10T13:51:36;18.50;36.20
71879;DHT22;59755;43.834;4.364;2023-01-10T13:54:11;18.40;36.60
71879;DHT22;59755;43.834;4.364;2023-01-10T13:56:48;18.20;36.80
71879;DHT22;59755;43.834;4.364;2023-01-10T14:02:26;18.10;36.90
71879;DHT22;59755;43.834;4.364;2023-01-10T14:05:16;18.40;36.10
71879;DHT22;59755;43.834;4.364;2023-01-10T14:07:47;18.40;36.20
71879;DHT22;59755;43.834;4.364;2023-01-10T14:10:33;18.50;36.20
71879;DHT22;59755;43.834;4.364;2023-01-10T14:15:39;18.20;36.90
71879;DHT22;59755;43.834;4.364;2023-01-10T14:20:40;18.00;36.80
71879;DHT22;59755;43.834;4.364;2023-01-10T14:25:58;18.00;37.00
71879;DHT22;59755;43.834;4.364;2023-01-10T14:28:30;17.70;37.80
71879;DHT22;59755;43.834;4.364;2023-01-10T14:31:17;17.50;38.20
71879;DHT22;59755;43.834;4.364;2023-01-10T14:33:44;17.40;37.80
71879;DHT22;59755;43.834;4.364;2023-01-10T14:36:32;17.20;38.40
71879;DHT22;59755;43.834;4.364;2023-01-10T14:39:01;16.80;39.50
71879;DHT22;59755;43.834;4.364;2023-01-10T14:41:38;16.70;39.40
71879;DHT22;59755;43.834;4.364;2023-01-10T14:44:17;16.60;39.40
71879;DHT22;59755;43.834;4.364;2023-01-10T14:46:50;16.60;39.90
71879;DHT22;59755;43.834;4.364;2023-01-10T14:49:28;16.90;39.50
71879;DHT22;59755;43.834;4.364;2023-01-10T14:52:17;16.90;39.40
71879;DHT22;59755;43.834;4.364;2023-01-10T14:54:44;16.60;40.20
71879;DHT22;59755;43.834;4.364;2023-01-10T14:57:22;16.60;40.30
71879;DHT22;59755;43.834;4.364;2023-01-10T14:59:49;16.00;41.00
71879;DHT22;59755;43.834;4.364;2023-01-10T15:07:24;15.30;43.10
71879;DHT22;59755;43.834;4.364;2023-01-10T15:09:52;15.10;42.50
71879;DHT22;59755;43.834;4.364;2023-01-10T15:12:22;14.90;43.40
71879;DHT22;59755;43.834;4.364;2023-01-10T15:14:53;14.60;43.40
71879;DHT22;59755;43.834;4.364;2023-01-10T15:17:20;14.50;44.70
71879;DHT22;59755;43.834;4.364;2023-01-10T15:19:49;14.40;43.80
71879;DHT22;59755;43.834;4.364;2023-01-10T15:22:35;14.40;44.40
71879;DHT22;59755;43.834;4.364;2023-01-10T15:27:29;14.00;46.50
71879;DHT22;59755;43.834;4.364;2023-01-10T15:29:56;13.90;46.70
71879;DHT22;59755;43.834;4.364;2023-01-10T15:32:32;13.90;46.10
71879;DHT22;59755;43.834;4.364;2023-01-10T15:34:59;13.70;46.00
71879;DHT22;59755;43.834;4.364;2023-01-10T15:37:33;13.70;46.20
71879;DHT22;59755;43.834;4.364;2023-01-10T15:40:04;13.60;46.40
71879;DHT22;59755;43.834;4.364;2023-01-10T15:42:30;13.50;46.90
71879;DHT22;59755;43.834;4.364;2023-01-10T15:44:56;13.40;47.10
71879;DHT22;59755;43.834;4.364;2023-01-10T15:47:35;13.30;46.90
71879;DHT22;59755;43.834;4.364;2023-01-10T15:50:24;13.30;47.40
71879;DHT22;59755;43.834;4.364;2023-01-10T15:52:55;13.30;48.10
71879;DHT22;59755;43.834;4.364;2023-01-10T15:55:47;13.20;48.50
71879;DHT22;59755;43.834;4.364;2023-01-10T16:00:43;13.20;48.90
71879;DHT22;59755;43.834;4.364;2023-01-10T16:05:54;13.10;48.80
71879;DHT22;59755;43.834;4.364;2023-01-10T16:08:23;13.10;48.30
71879;DHT22;59755;43.834;4.364;2023-01-10T16:10:56;13.00;49.40
71879;DHT22;59755;43.834;4.364;2023-01-10T16:13:22;12.90;49.70
71879;DHT22;59755;43.834;4.364;2023-01-10T16:15:52;12.80;50.20
71879;DHT22;59755;43.834;4.364;2023-01-10T16:18:18;12.80;50.60
71879;DHT22;59755;43.834;4.364;2023-01-10T16:20:45;12.70;51.40
71879;DHT22;59755;43.834;4.364;2023-01-10T16:23:24;12.60;51.00
71879;DHT22;59755;43.834;4.364;2023-01-10T16:25:52;12.60;51.60
71879;DHT22;59755;43.834;4.364;2023-01-10T16:28:19;12.60;51.90
71879;DHT22;59755;43.834;4.364;2023-01-10T16:30:46;12.60;52.30
71879;DHT22;59755;43.834;4.364;2023-01-10T16:35:47;12.30;52.80
71879;DHT22;59755;43.834;4.364;2023-01-10T16:38:13;12.20;53.10
71879;DHT22;59755;43.834;4.364;2023-01-10T16:40:42;12.10;53.40
71879;DHT22;59755;43.834;4.364;2023-01-10T16:43:09;12.00;53.60
71879;DHT22;59755;43.834;4.364;2023-01-10T16:46:03;12.10;53.40
71879;DHT22;59755;43.834;4.364;2023-01-10T16:48:30;12.00;54.40
71879;DHT22;59755;43.834;4.364;2023-01-10T16:51:17;11.90;55.10
71879;DHT22;59755;43.834;4.364;2023-01-10T16:53:44;12.00;54.60
71879;DHT22;59755;43.834;4.364;2023-01-10T16:56:18;11.90;53.30
71879;DHT22;59755;43.834;4.364;2023-01-10T16:58:49;11.90;55.20
71879;DHT22;59755;43.834;4.364;2023-01-10T17:01:18;11.70;55.80
71879;DHT22;59755;43.834;4.364;2023-01-10T17:03:44;11.70;54.70
71879;DHT22;59755;43.834;4.364;2023-01-10T17:06:13;11.70;54.90
71879;DHT22;59755;43.834;4.364;2023-01-10T17:08:40;11.50;55.70
71879;DHT22;59755;43.834;4.364;2023-01-10T17:11:12;11.40;56.10
71879;DHT22;59755;43.834;4.364;2023-01-10T17:13:41;11.40;57.20
71879;DHT22;59755;43.834;4.364;2023-01-10T17:16:08;11.50;57.20
71879;DHT22;59755;43.834;4.364;2023-01-10T17:18:33;11.50;57.50
71879;DHT22;59755;43.834;4.364;2023-01-10T17:20:59;11.40;58.20
71879;DHT22;59755;43.834;4.364;2023-01-10T17:23:25;11.30;58.50
71879;DHT22;59755;43.834;4.364;2023-01-10T17:25:59;11.30;58.20
71879;DHT22;59755;43.834;4.364;2023-01-10T17:28:25;11.30;57.90
71879;DHT22;59755;43.834;4.364;2023-01-10T17:30:51;11.20;58.00
71879;DHT22;59755;43.834;4.364;2023-01-10T17:33:16;11.10;58.10
71879;DHT22;59755;43.834;4.364;2023-01-10T17:35:43;11.00;57.70
71879;DHT22;59755;43.834;4.364;2023-01-10T17:38:11;11.00;58.20
71879;DHT22;59755;43.834;4.364;2023-01-10T17:40:41;11.00;58.30
71879;DHT22;59755;43.834;4.364;2023-01-10T17:43:07;11.00;58.60
71879;DHT22;59755;43.834;4.364;2023-01-10T17:45:33;11.00;58.30
71879;DHT22;59755;43.834;4.364;2023-01-10T17:47:58;10.90;58.40
71879;DHT22;59755;43.834;4.364;2023-01-10T17:50:25;10.90;57.80
71879;DHT22;59755;43.834;4.364;2023-01-10T17:52:50;10.90;58.40
71879;DHT22;59755;43.834;4.364;2023-01-10T17:55:16;10.90;58.20
71879;DHT22;59755;43.834;4.364;2023-01-10T17:57:42;10.80;58.80
71879;DHT22;59755;43.834;4.364;2023-01-10T18:00:08;10.80;58.00
71879;DHT22;59755;43.834;4.364;2023-01-10T18:02:35;10.80;58.20
71879;DHT22;59755;43.834;4.364;2023-01-10T18:05:02;10.80;60.20